Time;durP1;ratioP1;P1;durP2;ratioP2;P2;SDS_P1;SDS_P2;PMS_P1;PMS_P2;Temp;Humidity;BMP_temperature;BMP_pressure;BME280_temperature;BME280_humidity;BME280_pressure;Samples;Min_cycle;Max_cycle;Signal;HPM_P1;HPM_P2
2021/12/28 00:01:35;;;;;;;2.75;1.85;;;6.00;99.90;;;;;;5061479;28;20216;-66
2021/12/28 00:04:06;;;;;;;1.80;1.65;;;6.00;99.90;;;;;;5054120;28;20263;-67
2021/12/28 00:06:43;;;;;;;1.92;1.65;;;6.00;99.90;;;;;;5046359;28;20217;-67
2021/12/28 00:09:11;;;;;;;2.55;1.83;;;6.00;99.90;;;;;;5054981;28;20196;-66
2021/12/28 00:11:40;;;;;;;1.80;1.40;;;6.00;99.90;;;;;;5051886;28;20228;-66
2021/12/28 00:14:09;;;;;;;2.28;1.77;;;6.00;99.90;;;;;;5052791;28;20240;-66
2021/12/28 00:19:21;;;;;;;2.22;2.03;;;6.00;99.90;;;;;;5042513;28;20255;-66
2021/12/28 00:21:51;;;;;;;3.67;1.90;;;6.00;99.90;;;;;;5062805;28;20259;-67
2021/12/28 00:24:20;;;;;;;2.67;2.17;;;6.00;99.90;;;;;;5050323;28;20204;-66
2021/12/28 00:26:49;;;;;;;4.45;2.42;;;6.00;99.90;;;;;;5049439;28;20328;-66
2021/12/28 00:29:18;;;;;;;2.22;1.75;;;6.00;99.90;;;;;;5047399;28;20196;-66
2021/12/28 00:31:47;;;;;;;3.00;2.10;;;6.00;99.90;;;;;;5046957;28;20223;-67
2021/12/28 00:34:16;;;;;;;2.30;1.70;;;6.00;99.90;;;;;;5044176;28;20224;-67
2021/12/28 00:36:46;;;;;;;1.85;1.60;;;6.00;99.90;;;;;;5045938;28;20224;-66
2021/12/28 00:39:16;;;;;;;4.25;1.58;;;6.00;99.90;;;;;;5064179;28;20185;-67
2021/12/28 00:41:46;;;;;;;1.58;1.48;;;6.00;99.90;;;;;;5049255;28;20212;-67
2021/12/28 00:44:16;;;;;;;2.80;2.60;;;6.00;99.90;;;;;;5049068;28;20634;-66
2021/12/28 00:46:45;;;;;;;3.08;2.25;;;6.00;99.90;;;;;;5045806;28;20258;-67
2021/12/28 00:49:16;;;;;;;2.65;2.10;;;6.00;99.90;;;;;;5042331;28;20291;-66
2021/12/28 00:51:46;;;;;;;3.55;1.85;;;6.00;99.90;;;;;;5038864;28;20220;-66
2021/12/28 00:54:16;;;;;;;2.38;1.77;;;6.00;99.90;;;;;;5049145;28;20651;-67
2021/12/28 00:56:48;;;;;;;2.03;1.80;;;6.00;99.90;;;;;;5045550;28;20213;-67
2021/12/28 00:59:17;;;;;;;2.92;1.83;;;6.00;99.90;;;;;;5043517;28;20196;-67
2021/12/28 01:01:47;;;;;;;4.18;1.90;;;6.00;99.90;;;;;;5031635;28;20872;-68
2021/12/28 01:04:17;;;;;;;2.65;2.03;;;6.00;99.90;;;;;;5047395;28;20211;-66
2021/12/28 01:06:48;;;;;;;2.65;2.35;;;6.00;99.90;;;;;;5048071;28;20621;-66
2021/12/28 01:09:20;;;;;;;1.90;1.75;;;6.00;99.90;;;;;;5050467;28;20197;-67
2021/12/28 01:11:49;;;;;;;5.70;2.97;;;6.00;99.90;;;;;;5047391;28;20306;-67
2021/12/28 01:14:24;;;;;;;2.88;1.83;;;6.00;99.90;;;;;;5044737;28;20221;-67
2021/12/28 01:16:55;;;;;;;3.05;2.60;;;6.00;99.90;;;;;;5053880;28;20226;-67
2021/12/28 01:19:24;;;;;;;2.70;2.00;;;6.00;99.90;;;;;;5071554;28;20244;-66
2021/12/28 01:21:53;;;;;;;2.72;2.28;;;6.00;99.90;;;;;;5059880;28;20215;-66
2021/12/28 01:24:24;;;;;;;7.63;2.35;;;6.00;99.90;;;;;;5057530;28;20215;-67
2021/12/28 01:26:59;;;;;;;3.38;1.90;;;6.00;99.90;;;;;;5044616;28;20295;-67
2021/12/28 01:29:29;;;;;;;2.47;2.20;;;6.00;99.90;;;;;;5049879;28;20192;-67
2021/12/28 01:31:57;;;;;;;3.72;2.88;;;6.00;99.90;;;;;;5046045;28;20721;-67
2021/12/28 01:34:29;;;;;;;3.70;2.42;;;6.00;99.90;;;;;;5048971;28;20282;-67
2021/12/28 01:37:08;;;;;;;3.53;2.50;;;6.00;99.90;;;;;;5045636;28;20307;-67
2021/12/28 01:39:39;;;;;;;3.53;2.15;;;6.00;99.90;;;;;;5059145;28;20200;-68
2021/12/28 01:42:16;;;;;;;3.67;2.63;;;6.00;99.90;;;;;;5035565;28;20219;-68
2021/12/28 01:44:46;;;;;;;5.35;3.10;;;6.00;99.90;;;;;;5046035;28;20212;-67
2021/12/28 01:47:16;;;;;;;5.32;2.50;;;6.00;99.90;;;;;;5047015;28;20641;-67
2021/12/28 01:49:46;;;;;;;3.05;2.78;;;6.00;99.90;;;;;;5048532;28;20200;-67
2021/12/28 01:52:14;;;;;;;3.70;2.35;;;6.10;99.90;;;;;;5032235;28;20814;-67
2021/12/28 01:54:45;;;;;;;3.10;2.80;;;6.10;99.90;;;;;;5028296;28;20213;-67
2021/12/28 01:57:13;;;;;;;2.72;2.40;;;6.10;99.90;;;;;;5048540;28;20567;-67
2021/12/28 01:59:42;;;;;;;6.68;2.83;;;6.10;99.90;;;;;;5045134;28;20215;-67
2021/12/28 02:02:11;;;;;;;3.15;2.63;;;6.10;99.90;;;;;;5046766;28;20227;-67
2021/12/28 02:04:40;;;;;;;5.13;2.72;;;6.00;99.90;;;;;;5046504;28;20208;-67
2021/12/28 02:07:09;;;;;;;2.97;2.47;;;6.10;99.90;;;;;;5047278;28;20212;-67
2021/12/28 02:09:38;;;;;;;4.28;2.17;;;6.10;99.90;;;;;;5039381;28;20215;-66
2021/12/28 02:12:09;;;;;;;3.90;2.53;;;6.10;99.90;;;;;;5040520;28;20251;-66
2021/12/28 02:14:44;;;;;;;3.55;2.63;;;6.00;99.90;;;;;;5044167;28;20217;-66
2021/12/28 02:17:14;;;;;;;3.08;2.13;;;6.10;99.90;;;;;;5041218;28;20256;-67
2021/12/28 02:19:45;;;;;;;2.83;2.30;;;6.00;99.90;;;;;;5040502;28;20200;-67
2021/12/28 02:22:15;;;;;;;4.60;2.78;;;6.10;99.90;;;;;;5067509;28;20277;-67
2021/12/28 02:24:44;;;;;;;3.13;1.90;;;6.10;99.90;;;;;;5067410;28;20208;-67
2021/12/28 02:27:13;;;;;;;3.92;2.30;;;6.10;99.90;;;;;;5043899;28;20565;-67
2021/12/28 02:29:42;;;;;;;4.43;2.28;;;6.10;99.90;;;;;;5042099;28;20197;-66
2021/12/28 02:32:13;;;;;;;5.35;2.35;;;6.10;99.90;;;;;;5047495;28;20646;-67
2021/12/28 02:34:45;;;;;;;2.58;2.30;;;6.10;99.90;;;;;;5037032;28;20209;-67
2021/12/28 02:37:19;;;;;;;4.60;2.60;;;6.10;99.90;;;;;;5070162;28;20276;-67
2021/12/28 02:40:06;;;;;;;3.85;2.10;;;6.10;99.90;;;;;;5058557;28;20189;-67
2021/12/28 02:42:51;;;;;;;6.10;2.50;;;6.10;99.90;;;;;;5050686;28;20588;-67
2021/12/28 02:45:24;;;;;;;5.72;2.20;;;6.10;99.90;;;;;;5067236;28;20235;-67
2021/12/28 02:47:56;;;;;;;4.57;2.05;;;6.10;99.90;;;;;;5069627;28;20371;-67
2021/12/28 02:50:29;;;;;;;2.92;1.90;;;6.10;99.90;;;;;;5068654;28;20219;-67
2021/12/28 02:53:03;;;;;;;3.15;2.17;;;6.10;99.90;;;;;;5034692;28;20282;-66
2021/12/28 02:55:37;;;;;;;2.30;2.10;;;6.10;99.90;;;;;;5067247;28;20220;-66
2021/12/28 02:58:11;;;;;;;1.92;1.80;;;6.10;99.90;;;;;;5067313;28;20665;-66
2021/12/28 03:00:43;;;;;;;3.55;2.20;;;6.10;99.90;;;;;;5065886;28;20226;-66
2021/12/28 03:03:15;;;;;;;3.33;2.55;;;6.10;99.90;;;;;;5055839;28;20282;-67
2021/12/28 03:05:47;;;;;;;3.97;2.03;;;6.10;99.90;;;;;;5065465;28;20250;-66
2021/12/28 03:08:22;;;;;;;2.08;1.88;;;6.10;99.90;;;;;;5069912;28;20192;-66
2021/12/28 03:10:53;;;;;;;3.05;2.63;;;6.10;99.90;;;;;;5070011;28;20230;-66
2021/12/28 03:13:24;;;;;;;6.00;2.45;;;6.10;99.90;;;;;;5065216;28;20273;-67
2021/12/28 03:15:54;;;;;;;3.20;1.95;;;6.10;99.90;;;;;;5059112;28;20235;-68
2021/12/28 03:18:23;;;;;;;3.70;2.83;;;6.10;99.90;;;;;;5070923;28;20191;-66
2021/12/28 03:20:58;;;;;;;4.88;2.10;;;6.10;99.90;;;;;;5070385;28;20216;-66
2021/12/28 03:23:29;;;;;;;3.65;2.30;;;6.10;99.90;;;;;;5069376;28;20235;-67
2021/12/28 03:26:00;;;;;;;5.28;1.85;;;6.10;99.90;;;;;;5059090;28;20257;-65
2021/12/28 03:28:31;;;;;;;3.40;2.10;;;6.10;99.90;;;;;;5070996;28;20199;-66
2021/12/28 03:31:06;;;;;;;2.00;1.80;;;6.10;99.90;;;;;;5072950;28;20216;-66
2021/12/28 03:33:46;;;;;;;2.65;2.15;;;6.10;99.90;;;;;;5052050;28;20226;-66
2021/12/28 03:36:19;;;;;;;6.15;2.38;;;6.10;99.90;;;;;;5071782;28;20227;-66
2021/12/28 03:38:51;;;;;;;4.53;2.42;;;6.10;99.90;;;;;;5066195;28;20203;-66
2021/12/28 03:41:22;;;;;;;2.50;2.30;;;6.10;99.90;;;;;;5069886;28;20223;-66
2021/12/28 03:43:53;;;;;;;2.20;1.80;;;6.10;99.90;;;;;;5070785;28;20215;-67
2021/12/28 03:46:24;;;;;;;3.00;2.42;;;6.10;99.90;;;;;;5067064;28;20849;-66
2021/12/28 03:48:53;;;;;;;2.80;2.20;;;6.10;99.90;;;;;;5053611;28;20200;-65
2021/12/28 03:51:22;;;;;;;3.38;2.40;;;6.10;99.90;;;;;;5067537;28;20218;-66
2021/12/28 03:53:53;;;;;;;2.90;1.70;;;6.10;99.90;;;;;;5071008;28;20272;-67
2021/12/28 03:56:25;;;;;;;3.42;2.17;;;6.10;99.90;;;;;;5065822;28;20220;-65
2021/12/28 03:58:54;;;;;;;2.05;1.85;;;6.10;99.90;;;;;;5062569;28;20230;-66
2021/12/28 04:01:27;;;;;;;2.08;1.73;;;6.10;99.90;;;;;;5058930;28;20235;-66
2021/12/28 04:03:56;;;;;;;1.95;1.75;;;6.10;99.90;;;;;;5080762;28;20234;-66
2021/12/28 04:06:26;;;;;;;2.58;2.35;;;6.10;99.90;;;;;;5096397;28;20213;-66
2021/12/28 04:08:58;;;;;;;1.98;1.77;;;6.10;99.90;;;;;;5059384;28;20212;-66
2021/12/28 04:11:27;;;;;;;2.65;1.92;;;6.10;99.90;;;;;;5072681;28;20277;-66
2021/12/28 04:14:04;;;;;;;6.13;2.08;;;6.10;99.90;;;;;;5061102;28;20307;-66
2021/12/28 04:16:36;;;;;;;2.50;2.00;;;6.10;99.90;;;;;;5049986;28;20231;-67
2021/12/28 04:19:06;;;;;;;3.33;2.05;;;6.10;99.90;;;;;;5069874;28;20549;-66
2021/12/28 04:21:36;;;;;;;2.55;1.77;;;6.10;99.90;;;;;;5059931;28;20266;-66
2021/12/28 04:24:07;;;;;;;1.42;1.30;;;6.10;99.90;;;;;;5060626;28;20269;-65
2021/12/28 04:26:41;;;;;;;4.32;2.25;;;6.10;99.90;;;;;;5067996;28;20220;-66
2021/12/28 04:29:11;;;;;;;1.98;1.83;;;6.10;99.90;;;;;;5067706;28;20215;-66
2021/12/28 04:31:39;;;;;;;2.90;2.00;;;6.10;99.90;;;;;;5060114;28;20250;-67
2021/12/28 04:34:08;;;;;;;2.25;1.70;;;6.10;99.90;;;;;;5068264;28;20273;-67
2021/12/28 04:36:37;;;;;;;2.45;1.70;;;6.10;99.90;;;;;;5067624;28;20259;-66
2021/12/28 04:39:08;;;;;;;3.38;1.75;;;6.10;99.90;;;;;;5069739;28;20279;-67
2021/12/28 04:41:37;;;;;;;3.38;1.73;;;6.10;99.90;;;;;;5067895;28;20231;-67
2021/12/28 04:44:07;;;;;;;1.85;1.70;;;6.10;99.90;;;;;;5064574;28;20219;-66
2021/12/28 04:46:36;;;;;;;3.38;1.70;;;6.10;99.90;;;;;;5051376;28;20906;-66
2021/12/28 04:49:05;;;;;;;3.50;1.70;;;6.10;99.90;;;;;;5054176;28;20231;-66
2021/12/28 04:51:34;;;;;;;2.97;2.22;;;6.10;99.90;;;;;;5067208;28;20242;-66
2021/12/28 04:54:06;;;;;;;2.88;1.70;;;6.10;99.90;;;;;;5072900;28;20706;-66
2021/12/28 04:56:37;;;;;;;2.00;1.20;;;6.10;99.90;;;;;;5067302;28;20649;-66
2021/12/28 04:59:05;;;;;;;4.15;2.15;;;6.10;99.90;;;;;;5079323;28;20195;-66
2021/12/28 05:01:36;;;;;;;2.60;1.70;;;6.20;99.90;;;;;;5050613;28;20216;-65
2021/12/28 05:04:06;;;;;;;4.50;1.60;;;6.20;99.90;;;;;;5073623;28;20216;-66
2021/12/28 05:06:36;;;;;;;2.00;1.80;;;6.10;99.90;;;;;;5060865;28;20766;-66
2021/12/28 05:09:08;;;;;;;1.77;1.67;;;6.10;99.90;;;;;;5050814;28;20188;-67
2021/12/28 05:11:41;;;;;;;2.15;1.60;;;6.10;99.90;;;;;;5050144;28;20215;-66
2021/12/28 05:14:10;;;;;;;1.80;1.70;;;6.20;99.90;;;;;;5061382;28;20212;-66
2021/12/28 05:16:39;;;;;;;2.85;1.70;;;6.20;99.90;;;;;;5066061;28;20223;-66
2021/12/28 05:19:08;;;;;;;2.33;1.50;;;6.20;99.90;;;;;;5070783;28;20219;-67
2021/12/28 05:21:38;;;;;;;3.05;1.85;;;6.20;99.90;;;;;;5073456;28;20230;-67
2021/12/28 05:24:07;;;;;;;1.45;1.35;;;6.20;99.90;;;;;;5075978;28;20265;-66
2021/12/28 05:26:38;;;;;;;1.60;1.50;;;6.20;99.90;;;;;;5096079;28;20257;-66
2021/12/28 05:29:08;;;;;;;3.00;1.75;;;6.20;99.90;;;;;;5079956;28;20256;-66
2021/12/28 05:31:37;;;;;;;7.13;1.73;;;6.20;99.90;;;;;;5061003;28;20250;-66
2021/12/28 05:34:07;;;;;;;2.00;1.35;;;6.20;99.90;;;;;;5072106;28;20258;-67
2021/12/28 05:36:37;;;;;;;3.28;1.55;;;6.20;99.90;;;;;;5070679;28;20216;-67
2021/12/28 05:39:06;;;;;;;5.50;2.13;;;6.20;99.90;;;;;;5050899;28;20697;-65
2021/12/28 05:41:35;;;;;;;6.35;2.00;;;6.20;99.90;;;;;;5057438;28;20588;-66
2021/12/28 05:44:04;;;;;;;4.90;1.85;;;6.20;99.90;;;;;;5060246;28;20204;-66
2021/12/28 05:46:34;;;;;;;3.45;1.50;;;6.20;99.90;;;;;;5065720;28;20224;-66
2021/12/28 05:49:06;;;;;;;2.78;1.60;;;6.20;99.90;;;;;;5066321;28;20200;-66
2021/12/28 05:51:37;;;;;;;1.60;1.50;;;6.20;99.90;;;;;;5055820;28;20239;-66
2021/12/28 05:54:10;;;;;;;2.20;1.65;;;6.20;99.90;;;;;;5058211;28;20216;-66
2021/12/28 05:56:43;;;;;;;2.13;1.92;;;6.20;99.90;;;;;;5080453;28;20214;-66
2021/12/28 05:59:12;;;;;;;1.38;1.27;;;6.20;99.90;;;;;;5068094;28;20219;-66
2021/12/28 06:01:46;;;;;;;1.50;1.35;;;6.20;99.90;;;;;;5065097;28;20220;-67
2021/12/28 06:04:22;;;;;;;2.83;1.80;;;6.20;99.90;;;;;;5066374;28;20278;-66
2021/12/28 06:06:51;;;;;;;1.80;1.13;;;6.20;99.90;;;;;;5065434;28;20267;-66
2021/12/28 06:09:22;;;;;;;1.77;1.30;;;6.20;99.90;;;;;;5062995;28;20287;-66
2021/12/28 06:11:57;;;;;;;2.45;1.10;;;6.20;99.90;;;;;;5065546;27;20257;-66
2021/12/28 06:14:35;;;;;;;1.38;1.27;;;6.20;99.90;;;;;;5066900;28;20196;-66
2021/12/28 06:17:08;;;;;;;1.95;1.35;;;6.20;99.90;;;;;;5058765;28;20242;-66
2021/12/28 06:19:37;;;;;;;1.70;1.60;;;6.20;99.90;;;;;;5067518;28;20188;-66
2021/12/28 06:22:06;;;;;;;2.70;1.27;;;6.20;99.90;;;;;;5065760;28;20514;-65
2021/12/28 06:24:35;;;;;;;4.07;1.35;;;6.20;99.90;;;;;;5066972;28;20217;-66
2021/12/28 06:27:07;;;;;;;2.63;1.13;;;6.20;99.90;;;;;;5067263;28;20253;-67
2021/12/28 06:29:38;;;;;;;1.70;1.58;;;6.20;99.90;;;;;;5066229;28;20828;-66
2021/12/28 06:32:09;;;;;;;1.58;1.48;;;6.20;99.90;;;;;;5050430;28;20223;-66
2021/12/28 06:34:40;;;;;;;2.67;1.27;;;6.20;99.90;;;;;;5080188;28;20227;-66
2021/12/28 06:37:18;;;;;;;2.58;1.40;;;6.20;99.90;;;;;;5057632;28;20211;-65
2021/12/28 06:39:47;;;;;;;1.80;1.30;;;6.20;99.90;;;;;;5039322;28;20230;-66
2021/12/28 06:42:16;;;;;;;2.75;1.38;;;6.20;99.90;;;;;;5053801;28;20234;-65
2021/12/28 06:44:56;;;;;;;2.45;1.08;;;6.20;99.90;;;;;;5061884;28;20244;-66
2021/12/28 06:47:29;;;;;;;1.10;1.00;;;6.20;99.90;;;;;;5059954;28;20210;-66
2021/12/28 06:49:58;;;;;;;2.28;1.30;;;6.20;99.90;;;;;;5045013;28;20205;-66
2021/12/28 06:52:35;;;;;;;3.38;1.40;;;6.20;99.90;;;;;;5059021;28;20271;-67
2021/12/28 06:55:09;;;;;;;1.98;1.42;;;6.20;99.90;;;;;;5064078;28;20265;-67
2021/12/28 06:57:38;;;;;;;1.98;1.75;;;6.20;99.90;;;;;;5053617;28;20196;-67
2021/12/28 07:00:13;;;;;;;2.38;1.20;;;6.20;99.90;;;;;;5049077;28;20284;-66
2021/12/28 07:02:47;;;;;;;2.15;1.40;;;6.20;99.90;;;;;;5050501;28;20257;-66
2021/12/28 07:05:18;;;;;;;2.42;1.25;;;6.20;99.90;;;;;;5048762;28;20230;-67
2021/12/28 07:07:57;;;;;;;1.23;1.13;;;6.20;99.90;;;;;;5040147;28;20180;-66
2021/12/28 07:10:26;;;;;;;2.42;1.30;;;6.20;99.90;;;;;;5037613;28;20219;-66
2021/12/28 07:12:58;;;;;;;1.58;1.40;;;6.20;99.90;;;;;;5032443;28;20200;-67
2021/12/28 07:15:29;;;;;;;1.67;1.30;;;6.20;99.90;;;;;;5041954;28;20218;-66
2021/12/28 07:17:59;;;;;;;0.90;0.90;;;6.20;99.90;;;;;;5047837;28;20219;-66
2021/12/28 07:21:05;;;;;;;1.60;1.50;;;6.20;99.90;;;;;;5038166;28;20216;-65
2021/12/28 07:23:40;;;;;;;6.15;1.88;;;6.20;99.90;;;;;;5065001;28;20297;-67
2021/12/28 07:26:19;;;;;;;1.45;1.35;;;6.30;99.90;;;;;;5064470;28;20222;-66
2021/12/28 07:29:00;;;;;;;1.95;1.20;;;6.30;99.90;;;;;;5048958;28;20287;-65
2021/12/28 07:31:29;;;;;;;1.63;1.30;;;6.30;99.90;;;;;;5040214;28;20220;-67
2021/12/28 07:34:28;;;;;;;8.27;2.22;;;6.30;99.90;;;;;;5065576;28;20355;-67
2021/12/28 07:37:04;;;;;;;3.80;1.75;;;6.40;99.90;;;;;;5044510;28;20935;-71
2021/12/28 07:39:41;;;;;;;1.75;1.60;;;6.30;99.90;;;;;;5049350;28;20515;-73
2021/12/28 07:42:11;;;;;;;5.78;1.70;;;6.30;99.90;;;;;;5049259;28;20448;-72
2021/12/28 07:44:42;;;;;;;1.30;1.20;;;6.30;99.90;;;;;;5037813;28;20271;-71
2021/12/28 07:47:26;;;;;;;3.38;1.38;;;6.40;99.90;;;;;;5058464;28;20219;-71
2021/12/28 07:50:06;;;;;;;10.57;1.75;;;6.30;99.90;;;;;;5039109;28;20200;-71
2021/12/28 07:52:55;;;;;;;1.85;1.10;;;6.30;99.90;;;;;;5060970;28;20198;-72
2021/12/28 07:55:27;;;;;;;4.60;1.63;;;6.30;99.90;;;;;;5037016;28;20225;-67
2021/12/28 07:57:59;;;;;;;4.22;1.90;;;6.30;99.90;;;;;;5046177;28;20277;-66
2021/12/28 08:00:36;;;;;;;3.35;1.60;;;6.30;99.90;;;;;;5041673;28;20399;-66
2021/12/28 08:03:26;;;;;;;4.15;1.30;;;6.30;99.90;;;;;;5048027;28;20197;-65
2021/12/28 08:06:04;;;;;;;2.72;1.25;;;6.30;99.90;;;;;;5036276;28;20258;-66
2021/12/28 08:08:50;;;;;;;2.55;1.40;;;6.30;99.90;;;;;;5067070;28;20214;-66
2021/12/28 08:11:22;;;;;;;2.45;1.30;;;6.30;99.90;;;;;;5069404;28;20758;-66
2021/12/28 08:13:51;;;;;;;3.80;1.45;;;6.30;99.90;;;;;;5048077;28;20220;-66
2021/12/28 08:16:21;;;;;;;1.75;1.48;;;6.30;99.90;;;;;;5039750;28;20694;-66
2021/12/28 08:18:50;;;;;;;3.95;1.50;;;6.30;99.90;;;;;;5049455;28;20189;-66
2021/12/28 08:21:41;;;;;;;2.42;1.25;;;6.40;99.90;;;;;;5066177;28;20324;-67
2021/12/28 08:24:10;;;;;;;2.92;1.00;;;6.30;99.90;;;;;;5046533;28;20228;-67
2021/12/28 08:26:38;;;;;;;2.55;1.40;;;6.30;99.90;;;;;;5028598;28;20267;-67
2021/12/28 08:29:07;;;;;;;2.28;1.30;;;6.30;99.90;;;;;;5045706;28;20193;-67
2021/12/28 08:31:37;;;;;;;2.30;1.20;;;6.30;99.90;;;;;;5047687;28;20301;-67
2021/12/28 08:34:06;;;;;;;2.95;1.50;;;6.30;99.90;;;;;;5050055;28;20216;-66
2021/12/28 08:36:35;;;;;;;3.55;1.95;;;6.30;99.90;;;;;;5036302;28;20220;-66
2021/12/28 08:39:05;;;;;;;3.58;1.92;;;6.30;99.90;;;;;;5030699;28;20742;-66
2021/12/28 08:41:34;;;;;;;2.05;1.23;;;6.30;99.90;;;;;;5029818;28;20228;-66
2021/12/28 08:44:03;;;;;;;3.03;1.33;;;6.30;99.90;;;;;;5045180;28;20297;-66
2021/12/28 08:46:32;;;;;;;1.35;1.25;;;6.30;99.90;;;;;;5029975;28;20233;-66
2021/12/28 08:49:01;;;;;;;2.00;1.10;;;6.30;99.90;;;;;;5030194;28;20193;-67
2021/12/28 08:51:30;;;;;;;6.10;1.70;;;6.30;99.90;;;;;;5044269;28;20260;-66
2021/12/28 08:53:59;;;;;;;1.52;1.42;;;6.30;99.90;;;;;;5045155;28;20219;-66
2021/12/28 08:56:29;;;;;;;1.45;1.35;;;6.30;99.90;;;;;;5029645;28;20682;-66
2021/12/28 08:58:58;;;;;;;3.30;1.73;;;6.30;99.90;;;;;;5029951;28;20268;-67
2021/12/28 09:01:27;;;;;;;3.08;1.30;;;6.30;99.90;;;;;;5028244;28;20220;-66
2021/12/28 09:03:56;;;;;;;2.28;1.30;;;6.30;99.90;;;;;;5044189;28;20300;-67
2021/12/28 09:06:25;;;;;;;5.10;1.33;;;6.30;99.90;;;;;;5044773;28;20229;-66
2021/12/28 09:08:54;;;;;;;1.42;1.25;;;6.30;99.90;;;;;;5028730;28;20195;-66
2021/12/28 09:11:24;;;;;;;3.25;1.30;;;6.30;99.90;;;;;;5029922;28;20442;-66
2021/12/28 09:13:54;;;;;;;1.70;1.60;;;6.30;99.90;;;;;;5028706;28;20724;-67
2021/12/28 09:16:27;;;;;;;2.28;1.13;;;6.30;99.90;;;;;;5029771;28;20639;-66
2021/12/28 09:18:56;;;;;;;3.33;1.30;;;6.30;99.90;;;;;;5029778;28;20221;-66
2021/12/28 09:21:25;;;;;;;1.27;1.10;;;6.30;99.90;;;;;;5027878;28;20584;-66
2021/12/28 09:23:54;;;;;;;2.10;1.42;;;6.30;99.90;;;;;;5047291;28;20233;-66
2021/12/28 09:26:42;;;;;;;1.90;1.30;;;6.30;99.90;;;;;;5049103;28;20233;-66
2021/12/28 09:29:13;;;;;;;1.90;1.10;;;6.30;99.90;;;;;;5038137;28;20185;-66
2021/12/28 09:31:44;;;;;;;1.05;1.00;;;6.40;99.90;;;;;;5057775;28;20229;-65
2021/12/28 09:34:13;;;;;;;1.30;1.00;;;6.30;99.90;;;;;;5043322;28;20216;-67
2021/12/28 09:36:58;;;;;;;3.83;1.05;;;6.30;99.90;;;;;;5035592;28;20228;-66
2021/12/28 09:39:28;;;;;;;1.20;0.90;;;6.30;99.90;;;;;;5049706;28;20221;-65
2021/12/28 09:42:04;;;;;;;1.13;0.80;;;6.30;99.90;;;;;;5030782;28;20221;-65
2021/12/28 09:44:35;;;;;;;2.13;1.08;;;6.30;99.90;;;;;;5045001;28;20575;-66
2021/12/28 09:47:08;;;;;;;1.95;1.20;;;6.30;99.90;;;;;;5043916;28;20586;-67
2021/12/28 09:49:37;;;;;;;2.97;1.35;;;6.40;99.90;;;;;;5049365;28;20219;-66
2021/12/28 09:52:08;;;;;;;1.00;0.80;;;6.40;99.90;;;;;;5049801;28;20229;-66
2021/12/28 09:54:37;;;;;;;1.02;0.93;;;6.40;99.90;;;;;;5049172;28;20217;-67
2021/12/28 09:57:06;;;;;;;1.58;1.48;;;6.40;99.90;;;;;;5057799;28;20226;-67
2021/12/28 09:59:37;;;;;;;1.20;1.00;;;6.40;99.90;;;;;;5047803;28;20208;-66
2021/12/28 10:02:10;;;;;;;1.10;1.00;;;6.40;99.90;;;;;;5027157;28;20279;-66
2021/12/28 10:04:58;;;;;;;0.82;0.77;;;6.40;99.90;;;;;;5028850;28;20303;-67
2021/12/28 10:07:31;;;;;;;1.67;1.08;;;6.40;99.90;;;;;;5027740;28;20275;-65
2021/12/28 10:10:01;;;;;;;1.42;1.10;;;6.40;99.90;;;;;;5028459;28;20283;-65
2021/12/28 10:12:32;;;;;;;1.02;1.00;;;6.40;99.90;;;;;;5028448;28;20357;-67
2021/12/28 10:15:09;;;;;;;1.52;1.20;;;6.40;99.90;;;;;;5028085;28;20639;-66
2021/12/28 10:17:41;;;;;;;1.50;1.10;;;6.40;99.90;;;;;;5028115;28;20632;-66
2021/12/28 10:20:12;;;;;;;1.20;1.00;;;6.40;99.90;;;;;;5043480;28;20220;-67
2021/12/28 10:22:46;;;;;;;1.30;1.20;;;6.40;99.90;;;;;;5028538;28;20216;-66
2021/12/28 10:25:18;;;;;;;1.17;1.08;;;6.40;99.90;;;;;;5017202;28;20635;-67
2021/12/28 10:27:51;;;;;;;0.98;0.88;;;6.40;99.90;;;;;;5044057;28;20807;-66
2021/12/28 10:30:26;;;;;;;1.60;1.20;;;6.40;99.90;;;;;;5043256;28;20221;-67
2021/12/28 10:33:06;;;;;;;1.50;0.95;;;6.40;99.90;;;;;;5027450;28;20533;-67
2021/12/28 10:35:37;;;;;;;1.25;0.73;;;6.40;99.90;;;;;;5027947;28;20709;-66
2021/12/28 10:38:09;;;;;;;1.98;0.80;;;6.40;99.90;;;;;;5027311;28;20213;-66
2021/12/28 10:40:42;;;;;;;1.10;1.00;;;6.40;99.90;;;;;;5047792;28;20301;-68
2021/12/28 10:43:13;;;;;;;1.50;1.20;;;6.50;99.90;;;;;;5049906;28;20556;-66
2021/12/28 10:45:45;;;;;;;0.80;0.70;;;6.40;99.90;;;;;;5027161;28;20726;-66
2021/12/28 10:48:18;;;;;;;0.60;0.60;;;6.50;99.90;;;;;;5030359;28;20197;-66
2021/12/28 10:50:54;;;;;;;0.90;0.65;;;6.50;99.90;;;;;;5032294;28;20234;-66
2021/12/28 10:53:26;;;;;;;1.35;0.88;;;6.40;99.90;;;;;;5036181;28;20220;-66
2021/12/28 10:55:58;;;;;;;1.65;1.00;;;6.50;99.90;;;;;;5042009;28;20236;-66
2021/12/28 10:58:40;;;;;;;1.08;0.70;;;6.50;99.90;;;;;;5056792;28;20213;-66
2021/12/28 11:01:16;;;;;;;0.73;0.73;;;6.50;99.90;;;;;;5051163;28;20575;-66
2021/12/28 11:03:47;;;;;;;1.05;0.90;;;6.50;99.90;;;;;;5049517;28;20225;-66
2021/12/28 11:06:20;;;;;;;1.35;0.90;;;6.50;99.90;;;;;;5030099;28;20236;-66
2021/12/28 11:08:55;;;;;;;1.45;1.27;;;6.50;99.90;;;;;;5028912;28;20189;-65
2021/12/28 11:11:31;;;;;;;1.25;0.95;;;6.50;99.90;;;;;;5043629;28;20563;-67
2021/12/28 11:14:10;;;;;;;1.15;0.88;;;6.50;99.90;;;;;;5028386;28;20635;-66
2021/12/28 11:16:44;;;;;;;1.65;1.05;;;6.50;99.90;;;;;;5027748;28;20217;-66
2021/12/28 11:19:13;;;;;;;1.15;0.80;;;6.50;99.90;;;;;;5026940;28;20209;-66
2021/12/28 11:21:52;;;;;;;1.20;0.90;;;6.50;99.90;;;;;;5027127;28;20653;-66
2021/12/28 11:24:21;;;;;;;2.65;0.65;;;6.50;99.90;;;;;;5027725;28;20581;-66
2021/12/28 11:26:51;;;;;;;1.45;0.90;;;6.50;99.90;;;;;;5028150;28;20754;-66
2021/12/28 11:29:22;;;;;;;0.80;0.80;;;6.50;99.90;;;;;;5016105;28;20193;-68
2021/12/28 11:31:54;;;;;;;1.85;0.70;;;6.50;99.90;;;;;;5046705;28;20216;-65
2021/12/28 11:34:26;;;;;;;1.70;0.90;;;6.50;99.90;;;;;;5031354;28;20213;-66
2021/12/28 11:37:12;;;;;;;1.23;1.00;;;6.50;99.90;;;;;;5032432;28;20213;-66
2021/12/28 11:42:43;;;;;;;1.20;1.10;;;6.50;99.90;;;;;;5028523;28;20235;-66
2021/12/28 11:45:23;;;;;;;0.70;0.60;;;6.50;99.90;;;;;;5030758;28;20275;-66
2021/12/28 11:47:55;;;;;;;0.95;0.80;;;6.50;99.90;;;;;;5046422;28;20667;-66
2021/12/28 11:50:27;;;;;;;1.00;0.70;;;6.50;99.90;;;;;;5030539;28;20275;-66
2021/12/28 11:52:55;;;;;;;1.58;1.00;;;6.50;99.90;;;;;;5029849;28;20193;-66
2021/12/28 11:55:25;;;;;;;0.77;0.70;;;6.50;99.90;;;;;;5045661;28;20776;-66
2021/12/28 11:57:54;;;;;;;1.40;0.70;;;6.50;99.90;;;;;;5029573;28;20201;-66
2021/12/28 12:00:25;;;;;;;0.77;0.70;;;6.50;99.90;;;;;;5046245;28;20655;-66
2021/12/28 12:03:33;;;;;;;1.45;0.80;;;6.50;99.90;;;;;;5014391;28;20193;-66
2021/12/28 12:06:07;;;;;;;0.90;0.65;;;6.50;99.90;;;;;;5028280;28;20224;-66
2021/12/28 12:08:38;;;;;;;1.65;0.80;;;6.50;99.90;;;;;;5034293;28;20690;-72
2021/12/28 12:11:07;;;;;;;1.35;0.77;;;6.60;99.90;;;;;;5045848;28;20712;-71
2021/12/28 12:13:37;;;;;;;1.20;1.10;;;6.60;99.90;;;;;;5047568;28;20205;-70
2021/12/28 12:16:17;;;;;;;4.00;0.70;;;6.60;99.90;;;;;;5061272;28;20258;-71
2021/12/28 12:18:49;;;;;;;1.25;0.80;;;6.60;99.90;;;;;;5045646;28;20233;-71
2021/12/28 12:21:38;;;;;;;3.25;0.68;;;6.60;99.90;;;;;;5042248;28;20223;-72
2021/12/28 12:24:07;;;;;;;2.47;0.90;;;6.60;99.90;;;;;;5035786;28;20233;-71
2021/12/28 12:26:37;;;;;;;1.45;1.15;;;6.60;99.90;;;;;;5050178;28;20228;-72
2021/12/28 12:29:20;;;;;;;1.38;1.00;;;6.60;99.90;;;;;;5048892;28;20189;-72
2021/12/28 12:31:49;;;;;;;1.52;1.23;;;6.60;99.90;;;;;;5046335;28;20226;-70
2021/12/28 12:34:40;;;;;;;2.10;1.25;;;6.60;99.90;;;;;;5029953;28;20216;-72
2021/12/28 12:37:17;;;;;;;1.00;0.90;;;6.60;99.90;;;;;;5028164;28;20311;-72
2021/12/28 12:39:53;;;;;;;3.97;1.13;;;6.50;99.90;;;;;;5045599;28;20213;-71
2021/12/28 12:42:22;;;;;;;1.75;0.88;;;6.60;99.90;;;;;;5030333;28;20607;-71
2021/12/28 12:44:51;;;;;;;1.90;1.05;;;6.60;99.90;;;;;;5031092;28;20224;-72
2021/12/28 12:47:23;;;;;;;2.97;1.33;;;6.60;99.90;;;;;;5043657;28;20661;-71
2021/12/28 12:50:11;;;;;;;2.70;0.93;;;6.60;99.90;;;;;;5045017;28;20663;-71
2021/12/28 12:52:41;;;;;;;2.42;1.17;;;6.60;99.90;;;;;;5028849;28;20201;-70
2021/12/28 12:55:14;;;;;;;2.30;1.00;;;6.60;99.90;;;;;;5029283;28;20221;-70
2021/12/28 12:57:42;;;;;;;4.43;1.25;;;6.60;99.90;;;;;;5029144;28;20204;-72
2021/12/28 13:00:15;;;;;;;3.35;1.35;;;6.60;99.90;;;;;;5044328;28;22008;-71
2021/12/28 13:02:44;;;;;;;4.65;1.60;;;6.60;99.90;;;;;;5030054;28;20240;-72
2021/12/28 13:05:22;;;;;;;2.28;1.00;;;6.60;99.90;;;;;;5029788;28;20572;-71
2021/12/28 13:07:52;;;;;;;1.30;0.93;;;6.60;99.90;;;;;;5029229;28;20197;-72
2021/12/28 13:10:26;;;;;;;1.75;0.70;;;6.60;99.90;;;;;;5044761;28;20225;-71
2021/12/28 13:12:58;;;;;;;1.00;0.85;;;6.60;99.90;;;;;;5029875;28;20201;-71
2021/12/28 13:15:29;;;;;;;2.65;1.17;;;6.60;99.90;;;;;;5036168;28;20324;-71
2021/12/28 13:17:59;;;;;;;8.25;1.48;;;6.60;99.90;;;;;;5045061;28;20201;-72
2021/12/28 13:20:34;;;;;;;2.38;1.20;;;6.60;99.90;;;;;;5044374;28;20220;-72
2021/12/28 13:23:05;;;;;;;3.35;2.55;;;6.60;99.90;;;;;;5045053;28;20193;-72
2021/12/28 13:25:39;;;;;;;2.17;1.15;;;6.60;99.90;;;;;;5028061;28;20231;-71
2021/12/28 13:28:10;;;;;;;2.13;1.63;;;6.60;99.90;;;;;;5046039;28;20279;-72
2021/12/28 13:30:42;;;;;;;5.75;1.17;;;6.60;99.90;;;;;;5039235;28;21122;-71